Paron, AR (72122)

9:00 AM CDT on May 27, 2015 (GMT -0500)
Hot Springs Village | | Change Station
CLOSE
Current Station
Personal Weather Station
Location: Hot Springs Village, AR
Elevation: 564 ft
Nearby Weather Stations

Elev 564 ft 34.64 °N, 92.90 °W | Updated 2 minutes ago

Mostly Cloudy
Mostly Cloudy
73.4 °F
Feels Like 71 °F
N
2.2
Wind Variable Wind from SSE

Today
High -- | Low -- °F
--% Chance of Precip.
Yesterday
High -- | Low -- °F
Precip. -- in
6:01 AM 8:16 PM
Waxing Gibbous, 67% visible
Pressure 30.09 in
Visibility 10.0 miles
Clouds Clear
Heat Index 71 °F
Dew Point 71 °F
Humidity 92%
Rainfall 0.00 in
Snow Depth Not available.
UV 3 out of 12
Pollen 7.40 out of 12
Air Quality Not available.
Flu Activity No Activity
METAR KHOT 271353Z AUTO 00000KT 10SM CLR 23/20 A3011 RMK AO2 SLP190 T02280200

More Conditions Fewer Conditions

Pressure 30.09 in
Visibility 10.0 miles
Clouds Clear
Heat Index 71 °F
Dew Point 71 °F
Humidity 92%
Rainfall 0.00 in
Snow Depth Not available.
UV 3 out of 12
Pollen 7.40 out of 12
Air Quality Not available.
Flu Activity No Activity
METAR KHOT 271353Z AUTO 00000KT 10SM CLR 23/20 A3011 RMK AO2 SLP190 T02280200

More Conditions Fewer Conditions

10-Day Weather Forecast

Almanac

Astronomy

May. 27, 2015 Rise Set
Actual Time
Civil Twilight
Nautical Twilight
Astronomical Twilight
Moon
Length of Visible Light
Length of Day
Tomorrow will be .
, % of the Moon is Illuminated

Today's Extremes

State Highs State Lows

Community

WunderPhotos

Upload Photos

1,824,673 photos uploaded!

WunderBlogs® & News

Nearby

Air Quality

  Air Quality AQ Index Pollutant
Not available.

Snow Depth

Station Depth Elevation

Earthquake Activity

City Distance Mag. Time & Date
Minimum magnitude displayed is 2.5.

Coastal Water Temperatures

Place Temperature

Stations

Nearby Weather Stations

Station Location Temp. Windchill Dew Point Humidity Wind Precip. Elev Updated Type